sensor_id;sensor_type;location;lat;lon;timestamp;P1;durP1;ratioP1;P2;durP2;ratioP2
21862;SDS011;11096;51.338;12.524;2022-10-16T00:00:35;0.65;;;0.60;;
21862;SDS011;11096;51.338;12.524;2022-10-16T00:03:01;0.93;;;0.52;;
21862;SDS011;11096;51.338;12.524;2022-10-16T00:05:27;0.82;;;0.60;;
21862;SDS011;11096;51.338;12.524;2022-10-16T00:07:53;0.77;;;0.52;;
21862;SDS011;11096;51.338;12.524;2022-10-16T00:10:18;0.60;;;0.60;;
21862;SDS011;11096;51.338;12.524;2022-10-16T00:12:44;0.73;;;0.60;;
21862;SDS011;11096;51.338;12.524;2022-10-16T00:15:09;0.50;;;0.50;;
21862;SDS011;11096;51.338;12.524;2022-10-16T00:17:35;3.60;;;0.80;;
21862;SDS011;11096;51.338;12.524;2022-10-16T00:20:00;0.52;;;0.52;;
21862;SDS011;11096;51.338;12.524;2022-10-16T00:22:25;0.77;;;0.60;;
21862;SDS011;11096;51.338;12.524;2022-10-16T00:24:51;0.50;;;0.47;;
21862;SDS011;11096;51.338;12.524;2022-10-16T00:27:16;0.47;;;0.40;;
21862;SDS011;11096;51.338;12.524;2022-10-16T00:29:42;1.17;;;0.40;;
21862;SDS011;11096;51.338;12.524;2022-10-16T00:32:07;2.03;;;0.38;;
21862;SDS011;11096;51.338;12.524;2022-10-16T00:34:33;0.43;;;0.40;;
21862;SDS011;11096;51.338;12.524;2022-10-16T00:36:58;1.17;;;0.50;;
21862;SDS011;11096;51.338;12.524;2022-10-16T00:39:23;0.55;;;0.55;;
21862;SDS011;11096;51.338;12.524;2022-10-16T00:41:49;1.08;;;0.60;;
21862;SDS011;11096;51.338;12.524;2022-10-16T00:47:09;12.05;;;6.28;;
21862;SDS011;11096;51.338;12.524;2022-10-16T00:49:37;12.27;;;6.95;;
21862;SDS011;11096;51.338;12.524;2022-10-16T00:52:03;7.05;;;4.15;;
21862;SDS011;11096;51.338;12.524;2022-10-16T00:54:30;4.25;;;2.45;;
21862;SDS011;11096;51.338;12.524;2022-10-16T00:56:58;1.77;;;1.23;;
21862;SDS011;11096;51.338;12.524;2022-10-16T00:59:27;0.85;;;0.60;;
21862;SDS011;11096;51.338;12.524;2022-10-16T01:01:54;0.93;;;0.47;;
21862;SDS011;11096;51.338;12.524;2022-10-16T01:04:21;0.40;;;0.40;;
21862;SDS011;11096;51.338;12.524;2022-10-16T01:14:36;1.15;;;0.63;;
21862;SDS011;11096;51.338;12.524;2022-10-16T01:17:12;1.40;;;0.40;;
21862;SDS011;11096;51.338;12.524;2022-10-16T01:19:44;0.65;;;0.57;;
21862;SDS011;11096;51.338;12.524;2022-10-16T01:22:29;0.47;;;0.40;;
21862;SDS011;11096;51.338;12.524;2022-10-16T01:25:04;0.88;;;0.73;;
21862;SDS011;11096;51.338;12.524;2022-10-16T01:27:36;0.70;;;0.52;;
21862;SDS011;11096;51.338;12.524;2022-10-16T01:30:06;0.40;;;0.40;;
21862;SDS011;11096;51.338;12.524;2022-10-16T01:35:17;0.77;;;0.43;;
21862;SDS011;11096;51.338;12.524;2022-10-16T01:38:12;0.75;;;0.43;;
21862;SDS011;11096;51.338;12.524;2022-10-16T01:40:49;0.57;;;0.55;;
21862;SDS011;11096;51.338;12.524;2022-10-16T01:43:19;0.82;;;0.70;;
21862;SDS011;11096;51.338;12.524;2022-10-16T01:45:47;1.50;;;0.40;;
21862;SDS011;11096;51.338;12.524;2022-10-16T01:48:14;1.80;;;0.52;;
21862;SDS011;11096;51.338;12.524;2022-10-16T01:50:43;0.68;;;0.50;;
21862;SDS011;11096;51.338;12.524;2022-10-16T01:53:14;2.50;;;0.45;;
21862;SDS011;11096;51.338;12.524;2022-10-16T01:55:43;2.00;;;0.40;;
21862;SDS011;11096;51.338;12.524;2022-10-16T01:58:12;0.60;;;0.60;;
21862;SDS011;11096;51.338;12.524;2022-10-16T02:00:39;1.20;;;0.70;;
21862;SDS011;11096;51.338;12.524;2022-10-16T02:03:07;1.77;;;0.60;;
21862;SDS011;11096;51.338;12.524;2022-10-16T02:05:40;2.20;;;0.80;;
21862;SDS011;11096;51.338;12.524;2022-10-16T02:08:10;1.48;;;1.00;;
21862;SDS011;11096;51.338;12.524;2022-10-16T02:10:35;0.70;;;0.70;;
21862;SDS011;11096;51.338;12.524;2022-10-16T02:13:13;1.48;;;0.85;;
21862;SDS011;11096;51.338;12.524;2022-10-16T02:16:07;1.75;;;1.10;;
21862;SDS011;11096;51.338;12.524;2022-10-16T02:18:35;1.73;;;1.27;;
21862;SDS011;11096;51.338;12.524;2022-10-16T02:21:02;1.15;;;0.90;;
21862;SDS011;11096;51.338;12.524;2022-10-16T02:23:32;0.60;;;0.60;;
21862;SDS011;11096;51.338;12.524;2022-10-16T02:26:08;0.98;;;0.88;;
21862;SDS011;11096;51.338;12.524;2022-10-16T02:28:42;1.58;;;0.50;;
21862;SDS011;11096;51.338;12.524;2022-10-16T02:31:12;0.47;;;0.47;;
21862;SDS011;11096;51.338;12.524;2022-10-16T02:33:43;0.50;;;0.50;;
21862;SDS011;11096;51.338;12.524;2022-10-16T02:36:11;0.85;;;0.60;;
21862;SDS011;11096;51.338;12.524;2022-10-16T02:38:37;0.90;;;0.50;;
21862;SDS011;11096;51.338;12.524;2022-10-16T02:41:04;0.40;;;0.40;;
21862;SDS011;11096;51.338;12.524;2022-10-16T02:43:30;0.50;;;0.50;;
21862;SDS011;11096;51.338;12.524;2022-10-16T02:45:56;0.57;;;0.47;;
21862;SDS011;11096;51.338;12.524;2022-10-16T02:48:21;0.70;;;0.70;;
21862;SDS011;11096;51.338;12.524;2022-10-16T02:50:47;0.77;;;0.70;;
21862;SDS011;11096;51.338;12.524;2022-10-16T02:53:12;0.88;;;0.68;;
21862;SDS011;11096;51.338;12.524;2022-10-16T02:55:37;1.02;;;0.50;;
21862;SDS011;11096;51.338;12.524;2022-10-16T02:58:03;1.88;;;0.50;;
21862;SDS011;11096;51.338;12.524;2022-10-16T03:00:28;0.40;;;0.40;;
21862;SDS011;11096;51.338;12.524;2022-10-16T03:02:53;1.55;;;0.50;;
21862;SDS011;11096;51.338;12.524;2022-10-16T03:05:19;0.70;;;0.60;;
21862;SDS011;11096;51.338;12.524;2022-10-16T03:07:44;0.70;;;0.70;;
21862;SDS011;11096;51.338;12.524;2022-10-16T03:10:10;1.83;;;0.57;;
21862;SDS011;11096;51.338;12.524;2022-10-16T03:12:35;0.60;;;0.60;;
21862;SDS011;11096;51.338;12.524;2022-10-16T03:15:00;1.95;;;0.50;;
21862;SDS011;11096;51.338;12.524;2022-10-16T03:17:26;1.25;;;0.50;;
21862;SDS011;11096;51.338;12.524;2022-10-16T03:19:51;0.65;;;0.40;;
21862;SDS011;11096;51.338;12.524;2022-10-16T03:22:17;0.60;;;0.50;;
21862;SDS011;11096;51.338;12.524;2022-10-16T03:24:42;0.50;;;0.50;;
21862;SDS011;11096;51.338;12.524;2022-10-16T03:27:07;0.73;;;0.68;;
21862;SDS011;11096;51.338;12.524;2022-10-16T03:29:33;0.40;;;0.40;;
21862;SDS011;11096;51.338;12.524;2022-10-16T03:31:59;0.70;;;0.70;;
21862;SDS011;11096;51.338;12.524;2022-10-16T03:34:24;0.57;;;0.57;;
21862;SDS011;11096;51.338;12.524;2022-10-16T03:36:50;0.65;;;0.60;;
21862;SDS011;11096;51.338;12.524;2022-10-16T03:39:16;0.60;;;0.60;;
21862;SDS011;11096;51.338;12.524;2022-10-16T03:41:41;0.88;;;0.63;;
21862;SDS011;11096;51.338;12.524;2022-10-16T03:44:07;0.70;;;0.70;;
21862;SDS011;11096;51.338;12.524;2022-10-16T03:46:32;2.53;;;0.80;;
21862;SDS011;11096;51.338;12.524;2022-10-16T03:48:57;1.42;;;0.50;;
21862;SDS011;11096;51.338;12.524;2022-10-16T03:51:23;0.68;;;0.60;;
21862;SDS011;11096;51.338;12.524;2022-10-16T03:53:48;0.60;;;0.60;;
21862;SDS011;11096;51.338;12.524;2022-10-16T03:56:14;0.60;;;0.60;;
21862;SDS011;11096;51.338;12.524;2022-10-16T03:58:39;1.80;;;0.80;;
21862;SDS011;11096;51.338;12.524;2022-10-16T04:01:04;0.93;;;0.70;;
21862;SDS011;11096;51.338;12.524;2022-10-16T04:03:30;0.65;;;0.65;;
21862;SDS011;11096;51.338;12.524;2022-10-16T04:05:55;0.52;;;0.52;;
21862;SDS011;11096;51.338;12.524;2022-10-16T04:08:21;0.65;;;0.63;;
21862;SDS011;11096;51.338;12.524;2022-10-16T04:10:46;0.80;;;0.80;;
21862;SDS011;11096;51.338;12.524;2022-10-16T04:13:12;0.82;;;0.82;;
21862;SDS011;11096;51.338;12.524;2022-10-16T04:15:37;1.05;;;0.80;;
21862;SDS011;11096;51.338;12.524;2022-10-16T04:18:03;0.80;;;0.70;;
21862;SDS011;11096;51.338;12.524;2022-10-16T04:20:29;1.45;;;0.80;;
21862;SDS011;11096;51.338;12.524;2022-10-16T04:22:55;0.73;;;0.70;;
21862;SDS011;11096;51.338;12.524;2022-10-16T04:25:20;2.00;;;0.60;;
21862;SDS011;11096;51.338;12.524;2022-10-16T04:27:46;0.73;;;0.73;;
21862;SDS011;11096;51.338;12.524;2022-10-16T04:30:11;0.68;;;0.68;;
21862;SDS011;11096;51.338;12.524;2022-10-16T04:32:37;0.73;;;0.73;;
21862;SDS011;11096;51.338;12.524;2022-10-16T04:35:03;1.15;;;0.65;;
21862;SDS011;11096;51.338;12.524;2022-10-16T04:37:28;2.35;;;0.70;;
21862;SDS011;11096;51.338;12.524;2022-10-16T04:39:54;1.35;;;0.85;;
21862;SDS011;11096;51.338;12.524;2022-10-16T04:42:19;0.70;;;0.70;;
21862;SDS011;11096;51.338;12.524;2022-10-16T04:44:45;0.50;;;0.50;;
21862;SDS011;11096;51.338;12.524;2022-10-16T04:47:11;0.98;;;0.80;;
21862;SDS011;11096;51.338;12.524;2022-10-16T04:49:36;0.70;;;0.65;;
21862;SDS011;11096;51.338;12.524;2022-10-16T04:52:01;0.50;;;0.50;;
21862;SDS011;11096;51.338;12.524;2022-10-16T04:54:27;0.52;;;0.52;;
21862;SDS011;11096;51.338;12.524;2022-10-16T04:56:52;2.40;;;0.93;;
21862;SDS011;11096;51.338;12.524;2022-10-16T04:59:18;0.95;;;0.85;;
21862;SDS011;11096;51.338;12.524;2022-10-16T05:01:44;0.77;;;0.77;;
21862;SDS011;11096;51.338;12.524;2022-10-16T05:04:10;1.63;;;0.70;;
21862;SDS011;11096;51.338;12.524;2022-10-16T05:06:36;1.17;;;0.90;;
21862;SDS011;11096;51.338;12.524;2022-10-16T05:09:03;1.42;;;0.80;;
21862;SDS011;11096;51.338;12.524;2022-10-16T05:11:29;0.90;;;0.60;;
21862;SDS011;11096;51.338;12.524;2022-10-16T05:13:55;0.93;;;0.73;;
21862;SDS011;11096;51.338;12.524;2022-10-16T05:16:20;0.60;;;0.60;;
21862;SDS011;11096;51.338;12.524;2022-10-16T05:18:45;1.13;;;0.80;;
21862;SDS011;11096;51.338;12.524;2022-10-16T05:21:11;0.77;;;0.77;;
21862;SDS011;11096;51.338;12.524;2022-10-16T05:23:36;0.88;;;0.80;;
21862;SDS011;11096;51.338;12.524;2022-10-16T05:26:01;1.77;;;0.55;;
21862;SDS011;11096;51.338;12.524;2022-10-16T05:28:27;0.85;;;0.70;;
21862;SDS011;11096;51.338;12.524;2022-10-16T05:30:54;1.48;;;0.70;;
21862;SDS011;11096;51.338;12.524;2022-10-16T05:33:20;0.93;;;0.80;;
21862;SDS011;11096;51.338;12.524;2022-10-16T05:35:46;1.20;;;0.95;;
21862;SDS011;11096;51.338;12.524;2022-10-16T05:38:11;1.40;;;0.98;;
21862;SDS011;11096;51.338;12.524;2022-10-16T05:40:37;1.83;;;0.90;;
21862;SDS011;11096;51.338;12.524;2022-10-16T05:43:02;0.90;;;0.90;;
21862;SDS011;11096;51.338;12.524;2022-10-16T05:45:28;0.93;;;0.93;;
21862;SDS011;11096;51.338;12.524;2022-10-16T05:47:53;1.63;;;1.10;;
21862;SDS011;11096;51.338;12.524;2022-10-16T05:50:18;4.30;;;0.80;;
21862;SDS011;11096;51.338;12.524;2022-10-16T05:52:44;0.85;;;0.85;;
21862;SDS011;11096;51.338;12.524;2022-10-16T05:55:09;1.02;;;0.93;;
21862;SDS011;11096;51.338;12.524;2022-10-16T05:57:34;1.15;;;1.00;;
21862;SDS011;11096;51.338;12.524;2022-10-16T06:00:00;0.65;;;0.65;;
21862;SDS011;11096;51.338;12.524;2022-10-16T06:02:25;1.00;;;0.90;;
21862;SDS011;11096;51.338;12.524;2022-10-16T06:04:53;1.13;;;0.77;;
21862;SDS011;11096;51.338;12.524;2022-10-16T06:07:19;0.93;;;0.85;;
21862;SDS011;11096;51.338;12.524;2022-10-16T06:09:47;1.85;;;0.63;;
21862;SDS011;11096;51.338;12.524;2022-10-16T06:12:14;3.35;;;0.77;;
21862;SDS011;11096;51.338;12.524;2022-10-16T06:14:39;1.52;;;1.00;;
21862;SDS011;11096;51.338;12.524;2022-10-16T06:17:05;0.77;;;0.77;;
21862;SDS011;11096;51.338;12.524;2022-10-16T06:19:31;0.85;;;0.80;;
21862;SDS011;11096;51.338;12.524;2022-10-16T06:21:56;1.27;;;1.17;;
21862;SDS011;11096;51.338;12.524;2022-10-16T06:24:23;0.88;;;0.70;;
21862;SDS011;11096;51.338;12.524;2022-10-16T06:26:48;2.25;;;0.63;;
21862;SDS011;11096;51.338;12.524;2022-10-16T06:29:13;0.80;;;0.80;;
21862;SDS011;11096;51.338;12.524;2022-10-16T06:31:39;2.47;;;0.60;;
21862;SDS011;11096;51.338;12.524;2022-10-16T06:34:04;1.10;;;0.90;;
21862;SDS011;11096;51.338;12.524;2022-10-16T06:36:34;1.50;;;0.60;;
21862;SDS011;11096;51.338;12.524;2022-10-16T06:38:59;1.00;;;0.60;;
21862;SDS011;11096;51.338;12.524;2022-10-16T06:41:24;0.75;;;0.75;;
21862;SDS011;11096;51.338;12.524;2022-10-16T06:43:50;0.85;;;0.80;;
21862;SDS011;11096;51.338;12.524;2022-10-16T06:46:18;0.68;;;0.65;;
21862;SDS011;11096;51.338;12.524;2022-10-16T06:48:45;0.85;;;0.85;;
21862;SDS011;11096;51.338;12.524;2022-10-16T06:51:12;0.88;;;0.80;;
21862;SDS011;11096;51.338;12.524;2022-10-16T06:53:43;0.85;;;0.70;;
21862;SDS011;11096;51.338;12.524;2022-10-16T06:56:16;0.60;;;0.60;;
21862;SDS011;11096;51.338;12.524;2022-10-16T06:58:42;1.30;;;0.90;;
21862;SDS011;11096;51.338;12.524;2022-10-16T07:01:09;1.25;;;0.75;;
21862;SDS011;11096;51.338;12.524;2022-10-16T07:03:39;1.95;;;0.80;;
21862;SDS011;11096;51.338;12.524;2022-10-16T07:06:06;1.05;;;0.63;;
21862;SDS011;11096;51.338;12.524;2022-10-16T07:08:32;0.70;;;0.60;;
21862;SDS011;11096;51.338;12.524;2022-10-16T07:11:09;0.65;;;0.60;;
21862;SDS011;11096;51.338;12.524;2022-10-16T07:13:42;0.95;;;0.73;;
21862;SDS011;11096;51.338;12.524;2022-10-16T07:16:13;2.35;;;0.70;;
21862;SDS011;11096;51.338;12.524;2022-10-16T07:18:40;0.70;;;0.70;;
21862;SDS011;11096;51.338;12.524;2022-10-16T07:21:08;0.47;;;0.47;;
21862;SDS011;11096;51.338;12.524;2022-10-16T07:24:00;0.57;;;0.57;;
21862;SDS011;11096;51.338;12.524;2022-10-16T07:26:26;0.65;;;0.60;;
21862;SDS011;11096;51.338;12.524;2022-10-16T07:28:53;2.22;;;0.65;;
21862;SDS011;11096;51.338;12.524;2022-10-16T07:31:21;0.68;;;0.63;;
21862;SDS011;11096;51.338;12.524;2022-10-16T07:33:47;0.60;;;0.60;;
21862;SDS011;11096;51.338;12.524;2022-10-16T07:36:14;0.60;;;0.60;;
21862;SDS011;11096;51.338;12.524;2022-10-16T07:38:41;1.00;;;0.60;;
21862;SDS011;11096;51.338;12.524;2022-10-16T07:41:17;0.40;;;0.40;;
21862;SDS011;11096;51.338;12.524;2022-10-16T07:43:47;0.60;;;0.60;;
21862;SDS011;11096;51.338;12.524;2022-10-16T07:46:13;1.75;;;0.65;;
21862;SDS011;11096;51.338;12.524;2022-10-16T07:48:39;1.10;;;0.85;;
21862;SDS011;11096;51.338;12.524;2022-10-16T07:51:05;1.85;;;0.82;;
21862;SDS011;11096;51.338;12.524;2022-10-16T07:53:31;0.40;;;0.40;;
21862;SDS011;11096;51.338;12.524;2022-10-16T07:55:59;0.95;;;0.47;;
21862;SDS011;11096;51.338;12.524;2022-10-16T07:58:29;1.70;;;0.25;;
21862;SDS011;11096;51.338;12.524;2022-10-16T08:00:55;0.95;;;0.30;;
21862;SDS011;11096;51.338;12.524;2022-10-16T08:03:21;0.45;;;0.45;;
21862;SDS011;11096;51.338;12.524;2022-10-16T08:05:47;0.52;;;0.40;;
21862;SDS011;11096;51.338;12.524;2022-10-16T08:08:13;0.20;;;0.20;;
21862;SDS011;11096;51.338;12.524;2022-10-16T08:10:39;1.15;;;0.40;;
21862;SDS011;11096;51.338;12.524;2022-10-16T08:13:05;0.20;;;0.20;;
21862;SDS011;11096;51.338;12.524;2022-10-16T08:15:30;0.30;;;0.30;;
21862;SDS011;11096;51.338;12.524;2022-10-16T08:17:59;0.38;;;0.25;;
21862;SDS011;11096;51.338;12.524;2022-10-16T08:20:27;0.40;;;0.38;;
21862;SDS011;11096;51.338;12.524;2022-10-16T08:22:53;0.20;;;0.20;;
21862;SDS011;11096;51.338;12.524;2022-10-16T08:25:19;3.45;;;0.32;;
21862;SDS011;11096;51.338;12.524;2022-10-16T08:27:45;0.38;;;0.30;;
21862;SDS011;11096;51.338;12.524;2022-10-16T08:30:10;2.42;;;0.25;;
21862;SDS011;11096;51.338;12.524;2022-10-16T08:32:35;0.30;;;0.30;;
21862;SDS011;11096;51.338;12.524;2022-10-16T08:35:01;0.30;;;0.30;;
21862;SDS011;11096;51.338;12.524;2022-10-16T08:37:30;0.50;;;0.50;;
21862;SDS011;11096;51.338;12.524;2022-10-16T08:39:56;0.98;;;0.20;;
21862;SDS011;11096;51.338;12.524;2022-10-16T08:45:13;0.20;;;0.20;;
21862;SDS011;11096;51.338;12.524;2022-10-16T08:50:39;0.35;;;0.13;;
21862;SDS011;11096;51.338;12.524;2022-10-16T08:53:05;0.40;;;0.40;;
21862;SDS011;11096;51.338;12.524;2022-10-16T08:55:41;0.25;;;0.25;;
21862;SDS011;11096;51.338;12.524;2022-10-16T08:58:13;0.30;;;0.30;;
21862;SDS011;11096;51.338;12.524;2022-10-16T09:00:40;0.32;;;0.20;;
21862;SDS011;11096;51.338;12.524;2022-10-16T09:03:17;0.43;;;0.32;;
21862;SDS011;11096;51.338;12.524;2022-10-16T09:06:05;0.90;;;0.30;;
21862;SDS011;11096;51.338;12.524;2022-10-16T09:08:38;0.73;;;0.20;;
21862;SDS011;11096;51.338;12.524;2022-10-16T09:11:41;0.65;;;0.30;;
21862;SDS011;11096;51.338;12.524;2022-10-16T09:19:41;0.30;;;0.30;;
21862;SDS011;11096;51.338;12.524;2022-10-16T09:22:31;0.40;;;0.30;;
21862;SDS011;11096;51.338;12.524;2022-10-16T09:25:00;0.85;;;0.50;;
21862;SDS011;11096;51.338;12.524;2022-10-16T09:27:36;1.20;;;0.40;;
21862;SDS011;11096;51.338;12.524;2022-10-16T09:30:10;0.32;;;0.30;;
21862;SDS011;11096;51.338;12.524;2022-10-16T09:32:37;0.55;;;0.28;;
21862;SDS011;11096;51.338;12.524;2022-10-16T09:35:04;2.15;;;0.30;;
21862;SDS011;11096;51.338;12.524;2022-10-16T09:37:35;0.22;;;0.22;;
21862;SDS011;11096;51.338;12.524;2022-10-16T09:40:01;0.30;;;0.20;;
21862;SDS011;11096;51.338;12.524;2022-10-16T09:42:35;0.75;;;0.30;;
21862;SDS011;11096;51.338;12.524;2022-10-16T09:45:02;0.20;;;0.20;;
21862;SDS011;11096;51.338;12.524;2022-10-16T09:47:29;0.50;;;0.40;;
21862;SDS011;11096;51.338;12.524;2022-10-16T09:50:00;0.30;;;0.22;;
21862;SDS011;11096;51.338;12.524;2022-10-16T09:52:29;0.30;;;0.20;;
21862;SDS011;11096;51.338;12.524;2022-10-16T09:54:56;0.47;;;0.45;;
21862;SDS011;11096;51.338;12.524;2022-10-16T09:57:23;0.45;;;0.30;;
21862;SDS011;11096;51.338;12.524;2022-10-16T09:59:50;1.60;;;0.30;;
21862;SDS011;11096;51.338;12.524;2022-10-16T10:02:29;0.30;;;0.30;;
21862;SDS011;11096;51.338;12.524;2022-10-16T10:04:55;2.30;;;0.30;;
21862;SDS011;11096;51.338;12.524;2022-10-16T10:07:24;1.67;;;0.40;;
21862;SDS011;11096;51.338;12.524;2022-10-16T10:09:51;0.40;;;0.30;;
21862;SDS011;11096;51.338;12.524;2022-10-16T10:12:21;2.42;;;0.65;;
21862;SDS011;11096;51.338;12.524;2022-10-16T10:14:49;0.30;;;0.30;;
21862;SDS011;11096;51.338;12.524;2022-10-16T10:22:31;1.08;;;0.50;;
21862;SDS011;11096;51.338;12.524;2022-10-16T10:30:40;0.40;;;0.40;;
21862;SDS011;11096;51.338;12.524;2022-10-16T10:38:56;2.40;;;0.47;;
21862;SDS011;11096;51.338;12.524;2022-10-16T10:42:17;0.40;;;0.40;;
21862;SDS011;11096;51.338;12.524;2022-10-16T10:47:24;0.68;;;0.45;;
21862;SDS011;11096;51.338;12.524;2022-10-16T10:50:17;0.95;;;0.50;;
21862;SDS011;11096;51.338;12.524;2022-10-16T10:52:59;0.60;;;0.60;;
21862;SDS011;11096;51.338;12.524;2022-10-16T10:55:43;0.52;;;0.47;;
21862;SDS011;11096;51.338;12.524;2022-10-16T11:06:29;1.20;;;0.80;;
21862;SDS011;11096;51.338;12.524;2022-10-16T11:11:44;2.38;;;0.93;;
21862;SDS011;11096;51.338;12.524;2022-10-16T11:14:16;0.60;;;0.60;;
21862;SDS011;11096;51.338;12.524;2022-10-16T11:16:52;0.73;;;0.73;;
21862;SDS011;11096;51.338;12.524;2022-10-16T11:24:35;1.20;;;0.63;;
21862;SDS011;11096;51.338;12.524;2022-10-16T11:27:11;0.50;;;0.43;;
21862;SDS011;11096;51.338;12.524;2022-10-16T11:29:47;2.67;;;0.55;;
21862;SDS011;11096;51.338;12.524;2022-10-16T11:32:20;0.82;;;0.60;;
21862;SDS011;11096;51.338;12.524;2022-10-16T11:34:53;0.73;;;0.60;;
21862;SDS011;11096;51.338;12.524;2022-10-16T11:37:26;0.57;;;0.50;;
21862;SDS011;11096;51.338;12.524;2022-10-16T11:39:57;0.55;;;0.52;;
21862;SDS011;11096;51.338;12.524;2022-10-16T11:42:38;0.93;;;0.70;;
21862;SDS011;11096;51.338;12.524;2022-10-16T11:47:44;1.30;;;0.77;;
21862;SDS011;11096;51.338;12.524;2022-10-16T11:50:17;0.80;;;0.70;;
21862;SDS011;11096;51.338;12.524;2022-10-16T11:55:25;0.80;;;0.77;;
21862;SDS011;11096;51.338;12.524;2022-10-16T11:57:59;1.48;;;0.90;;
21862;SDS011;11096;51.338;12.524;2022-10-16T12:00:35;1.30;;;0.80;;
21862;SDS011;11096;51.338;12.524;2022-10-16T12:03:11;1.38;;;0.70;;
21862;SDS011;11096;51.338;12.524;2022-10-16T12:08:22;0.52;;;0.52;;
21862;SDS011;11096;51.338;12.524;2022-10-16T12:10:48;0.70;;;0.70;;
21862;SDS011;11096;51.338;12.524;2022-10-16T12:18:30;2.33;;;0.82;;
21862;SDS011;11096;51.338;12.524;2022-10-16T12:20:56;1.45;;;0.93;;
21862;SDS011;11096;51.338;12.524;2022-10-16T12:23:47;0.88;;;0.85;;
21862;SDS011;11096;51.338;12.524;2022-10-16T12:26:23;0.70;;;0.60;;
21862;SDS011;11096;51.338;12.524;2022-10-16T12:28:50;2.28;;;0.70;;
21862;SDS011;11096;51.338;12.524;2022-10-16T12:31:16;1.20;;;0.88;;
21862;SDS011;11096;51.338;12.524;2022-10-16T12:34:01;0.98;;;0.70;;
21862;SDS011;11096;51.338;12.524;2022-10-16T12:36:29;0.88;;;0.80;;
21862;SDS011;11096;51.338;12.524;2022-10-16T12:38:57;0.85;;;0.68;;
21862;SDS011;11096;51.338;12.524;2022-10-16T12:41:33;1.35;;;0.73;;
21862;SDS011;11096;51.338;12.524;2022-10-16T12:44:01;1.25;;;0.73;;
21862;SDS011;11096;51.338;12.524;2022-10-16T12:51:40;1.48;;;0.70;;
21862;SDS011;11096;51.338;12.524;2022-10-16T12:54:14;2.75;;;0.80;;
21862;SDS011;11096;51.338;12.524;2022-10-16T12:59:57;0.50;;;0.50;;
21862;SDS011;11096;51.338;12.524;2022-10-16T13:29:22;1.58;;;0.70;;
21862;SDS011;11096;51.338;12.524;2022-10-16T13:31:47;0.35;;;0.30;;
21862;SDS011;11096;51.338;12.524;2022-10-16T13:34:14;0.68;;;0.50;;
21862;SDS011;11096;51.338;12.524;2022-10-16T13:36:43;4.72;;;0.55;;
21862;SDS011;11096;51.338;12.524;2022-10-16T13:39:13;0.60;;;0.40;;
21862;SDS011;11096;51.338;12.524;2022-10-16T13:42:06;0.30;;;0.30;;
21862;SDS011;11096;51.338;12.524;2022-10-16T13:44:41;0.85;;;0.30;;
21862;SDS011;11096;51.338;12.524;2022-10-16T13:47:16;1.95;;;0.50;;
21862;SDS011;11096;51.338;12.524;2022-10-16T13:49:41;0.85;;;0.43;;
21862;SDS011;11096;51.338;12.524;2022-10-16T13:52:15;0.57;;;0.50;;
21862;SDS011;11096;51.338;12.524;2022-10-16T13:54:44;0.68;;;0.45;;
21862;SDS011;11096;51.338;12.524;2022-10-16T13:57:12;0.38;;;0.35;;
21862;SDS011;11096;51.338;12.524;2022-10-16T13:59:39;0.55;;;0.40;;
21862;SDS011;11096;51.338;12.524;2022-10-16T14:04:56;0.68;;;0.68;;
21862;SDS011;11096;51.338;12.524;2022-10-16T14:07:23;0.73;;;0.30;;
21862;SDS011;11096;51.338;12.524;2022-10-16T14:09:51;0.52;;;0.43;;
21862;SDS011;11096;51.338;12.524;2022-10-16T14:12:18;0.65;;;0.30;;
21862;SDS011;11096;51.338;12.524;2022-10-16T14:14:45;3.15;;;0.40;;
21862;SDS011;11096;51.338;12.524;2022-10-16T14:17:19;1.05;;;0.50;;
21862;SDS011;11096;51.338;12.524;2022-10-16T14:19:57;0.98;;;0.40;;
21862;SDS011;11096;51.338;12.524;2022-10-16T14:22:26;2.05;;;0.60;;
21862;SDS011;11096;51.338;12.524;2022-10-16T14:24:53;0.50;;;0.30;;
21862;SDS011;11096;51.338;12.524;2022-10-16T14:27:32;0.80;;;0.60;;
21862;SDS011;11096;51.338;12.524;2022-10-16T14:30:33;1.55;;;0.70;;
21862;SDS011;11096;51.338;12.524;2022-10-16T14:32:59;0.60;;;0.40;;
21862;SDS011;11096;51.338;12.524;2022-10-16T14:35:28;0.50;;;0.40;;
21862;SDS011;11096;51.338;12.524;2022-10-16T14:37:54;2.05;;;0.40;;
21862;SDS011;11096;51.338;12.524;2022-10-16T14:40:25;0.38;;;0.30;;
21862;SDS011;11096;51.338;12.524;2022-10-16T14:42:55;0.40;;;0.40;;
21862;SDS011;11096;51.338;12.524;2022-10-16T14:45:21;0.52;;;0.50;;
21862;SDS011;11096;51.338;12.524;2022-10-16T14:47:52;0.38;;;0.38;;
21862;SDS011;11096;51.338;12.524;2022-10-16T14:50:20;1.85;;;0.77;;
21862;SDS011;11096;51.338;12.524;2022-10-16T14:52:46;0.70;;;0.40;;
21862;SDS011;11096;51.338;12.524;2022-10-16T14:55:12;0.65;;;0.50;;
21862;SDS011;11096;51.338;12.524;2022-10-16T14:57:37;0.68;;;0.45;;
21862;SDS011;11096;51.338;12.524;2022-10-16T15:00:09;0.40;;;0.40;;
21862;SDS011;11096;51.338;12.524;2022-10-16T15:02:48;0.38;;;0.38;;
21862;SDS011;11096;51.338;12.524;2022-10-16T15:05:16;0.55;;;0.50;;
21862;SDS011;11096;51.338;12.524;2022-10-16T15:07:44;0.40;;;0.40;;
21862;SDS011;11096;51.338;12.524;2022-10-16T15:10:11;0.50;;;0.50;;
21862;SDS011;11096;51.338;12.524;2022-10-16T15:12:37;0.55;;;0.47;;
21862;SDS011;11096;51.338;12.524;2022-10-16T15:15:21;1.15;;;0.68;;
21862;SDS011;11096;51.338;12.524;2022-10-16T15:17:47;0.90;;;0.47;;
21862;SDS011;11096;51.338;12.524;2022-10-16T15:20:13;0.68;;;0.65;;
21862;SDS011;11096;51.338;12.524;2022-10-16T15:22:38;1.33;;;0.50;;
21862;SDS011;11096;51.338;12.524;2022-10-16T15:27:59;0.50;;;0.50;;
21862;SDS011;11096;51.338;12.524;2022-10-16T15:30:25;0.50;;;0.50;;
21862;SDS011;11096;51.338;12.524;2022-10-16T15:32:51;1.02;;;0.70;;
21862;SDS011;11096;51.338;12.524;2022-10-16T15:35:17;0.68;;;0.40;;
21862;SDS011;11096;51.338;12.524;2022-10-16T15:37:42;1.98;;;0.70;;
21862;SDS011;11096;51.338;12.524;2022-10-16T15:40:08;0.50;;;0.50;;
21862;SDS011;11096;51.338;12.524;2022-10-16T15:42:34;1.05;;;0.70;;
21862;SDS011;11096;51.338;12.524;2022-10-16T15:45:00;0.55;;;0.50;;
21862;SDS011;11096;51.338;12.524;2022-10-16T15:47:25;0.70;;;0.60;;
21862;SDS011;11096;51.338;12.524;2022-10-16T15:49:51;0.75;;;0.60;;
21862;SDS011;11096;51.338;12.524;2022-10-16T15:52:16;1.05;;;0.80;;
21862;SDS011;11096;51.338;12.524;2022-10-16T15:54:41;0.95;;;0.77;;
21862;SDS011;11096;51.338;12.524;2022-10-16T15:57:07;0.85;;;0.77;;
21862;SDS011;11096;51.338;12.524;2022-10-16T15:59:32;1.02;;;0.90;;
21862;SDS011;11096;51.338;12.524;2022-10-16T16:01:58;0.82;;;0.70;;
21862;SDS011;11096;51.338;12.524;2022-10-16T16:04:23;2.22;;;1.05;;
21862;SDS011;11096;51.338;12.524;2022-10-16T16:06:48;0.93;;;0.77;;
21862;SDS011;11096;51.338;12.524;2022-10-16T16:09:14;1.48;;;0.80;;
21862;SDS011;11096;51.338;12.524;2022-10-16T16:11:39;1.83;;;1.00;;
21862;SDS011;11096;51.338;12.524;2022-10-16T16:14:05;1.08;;;0.80;;
21862;SDS011;11096;51.338;12.524;2022-10-16T16:16:31;1.13;;;0.90;;
21862;SDS011;11096;51.338;12.524;2022-10-16T16:19:01;1.13;;;0.98;;
21862;SDS011;11096;51.338;12.524;2022-10-16T16:21:27;0.88;;;0.80;;
21862;SDS011;11096;51.338;12.524;2022-10-16T16:23:53;1.10;;;0.90;;
21862;SDS011;11096;51.338;12.524;2022-10-16T16:26:28;2.28;;;1.10;;
21862;SDS011;11096;51.338;12.524;2022-10-16T16:28:59;1.02;;;0.82;;
21862;SDS011;11096;51.338;12.524;2022-10-16T16:31:25;0.85;;;0.77;;
21862;SDS011;11096;51.338;12.524;2022-10-16T16:33:52;1.13;;;0.90;;
21862;SDS011;11096;51.338;12.524;2022-10-16T16:36:18;6.53;;;4.63;;